Time;durP1;ratioP1;P1;durP2;ratioP2;P2;SDS_P1;SDS_P2;PMS_P1;PMS_P2;Temp;Humidity;BMP_temperature;BMP_pressure;BME280_temperature;BME280_humidity;BME280_pressure;Samples;Min_cycle;Max_cycle;Signal;HPM_P1;HPM_P2
2022/01/22 00:00:51;;;;;;;9.43;5.43;;;;;;;3.07;94.19;100183.91;5071536;27;103230;-64
2022/01/22 00:03:20;;;;;;;9.97;4.93;;;;;;;3.06;93.89;100177.00;5046438;27;103724;-64
2022/01/22 00:05:49;;;;;;;6.83;4.80;;;;;;;3.05;94.70;100180.47;5065249;27;102714;-64
2022/01/22 00:08:17;;;;;;;8.57;5.50;;;;;;;3.06;93.42;100182.22;5066835;27;103606;-63
2022/01/22 00:10:45;;;;;;;7.70;5.93;;;;;;;3.03;93.87;100179.66;5044264;27;103222;-63
2022/01/22 00:16:01;;;;;;;9.80;5.77;;;;;;;2.93;94.19;100182.44;5065104;27;102616;-67
2022/01/22 00:18:29;;;;;;;10.40;5.23;;;;;;;3.00;94.03;100170.13;5078157;27;103622;-66
2022/01/22 00:20:58;;;;;;;8.43;5.43;;;;;;;2.99;93.62;100181.47;5064079;27;103270;-66
2022/01/22 00:23:28;;;;;;;5.80;5.23;;;;;;;3.01;93.52;100176.19;5068704;27;103226;-67
2022/01/22 00:25:56;;;;;;;6.50;5.07;;;;;;;3.11;93.11;100169.94;5065842;27;102592;-66
2022/01/22 00:28:24;;;;;;;6.80;5.87;;;;;;;3.18;92.46;100176.75;5070918;27;103709;-67
2022/01/22 00:30:52;;;;;;;7.60;5.10;;;;;;;3.16;93.04;100178.53;5047114;27;103680;-66
2022/01/22 00:33:20;;;;;;;6.63;5.70;;;;;;;3.15;92.60;100176.78;5065454;27;103216;-67
2022/01/22 00:35:48;;;;;;;7.13;5.40;;;;;;;3.16;92.90;100173.31;5045931;27;102690;-67
2022/01/22 00:38:18;;;;;;;6.50;5.73;;;;;;;3.24;93.05;100176.63;5050109;27;102627;-66
2022/01/22 00:40:51;;;;;;;5.30;4.80;;;;;;;3.33;92.16;100176.44;5044084;27;103231;-67
2022/01/22 00:43:20;;;;;;;4.87;4.43;;;;;;;3.38;91.97;100179.84;5049991;27;104161;-67
2022/01/22 00:45:48;;;;;;;5.70;5.20;;;;;;;3.33;92.81;100184.28;5047649;27;102666;-68
2022/01/22 00:48:16;;;;;;;6.77;5.73;;;;;;;3.25;91.91;100178.34;5039856;27;102977;-67
2022/01/22 00:50:44;;;;;;;5.63;4.57;;;;;;;3.35;92.40;100174.66;5043944;27;103255;-66
2022/01/22 00:53:12;;;;;;;7.17;5.40;;;;;;;3.36;92.08;100186.84;5065562;27;103720;-67
2022/01/22 00:55:42;;;;;;;6.57;5.87;;;;;;;3.33;92.13;100173.84;5069064;27;102679;-67
2022/01/22 00:58:10;;;;;;;6.80;6.10;;;;;;;3.37;91.55;100178.09;5055483;27;103686;-67
2022/01/22 01:00:38;;;;;;;8.87;6.30;;;;;;;3.33;91.68;100172.09;5045975;27;104394;-66
2022/01/22 01:03:06;;;;;;;5.93;5.33;;;;;;;3.37;91.87;100173.75;5064246;27;103261;-66
2022/01/22 01:05:34;;;;;;;5.33;4.73;;;;;;;3.45;91.87;100165.75;5064135;27;103151;-66
2022/01/22 01:08:03;;;;;;;7.40;5.83;;;;;;;3.34;92.32;100162.50;5066017;27;103465;-66
2022/01/22 01:10:32;;;;;;;6.53;5.90;;;;;;;3.33;92.67;100166.00;5042757;27;104535;-66
2022/01/22 01:13:01;;;;;;;9.47;6.80;;;;;;;3.33;92.21;100171.22;5052905;27;105259;-66
2022/01/22 01:15:40;;;;;;;7.03;6.33;;;;;;;3.35;92.89;100172.06;5044919;27;102770;-66
2022/01/22 01:32:20;;;;;;;10.07;6.50;;;;;;;3.50;91.75;100179.59;5041902;27;105944;-66
2022/01/22 01:34:51;;;;;;;11.80;7.07;;;;;;;3.51;91.29;100181.28;5064783;27;104678;-66
2022/01/22 01:37:20;;;;;;;9.23;7.07;;;;;;;3.49;91.63;100177.84;5066461;27;102764;-63
2022/01/22 01:39:53;;;;;;;9.43;7.00;;;;;;;3.45;91.70;100181.44;5043605;27;103594;-63
2022/01/22 01:42:29;;;;;;;14.70;8.30;;;;;;;3.46;91.61;100177.91;5041546;27;103294;-63
2022/01/22 01:45:05;;;;;;;13.73;8.53;;;;;;;3.43;92.20;100189.28;5052562;27;105988;-63
2022/01/22 01:47:43;;;;;;;9.20;7.33;;;;;;;3.48;91.39;100190.06;5046300;27;103273;-64
2022/01/22 01:50:11;;;;;;;11.03;7.77;;;;;;;3.49;91.78;100185.69;5045865;27;103178;-67
2022/01/22 01:52:45;;;;;;;10.23;8.23;;;;;;;3.46;92.37;100185.75;5041964;27;105070;-66
2022/01/22 01:55:18;;;;;;;9.37;7.50;;;;;;;3.53;91.63;100183.88;5042918;27;105667;-66
2022/01/22 01:57:46;;;;;;;10.93;7.90;;;;;;;3.50;91.02;100192.66;5052598;27;102688;-64
2022/01/22 02:00:22;;;;;;;11.60;7.37;;;;;;;3.59;91.36;100184.63;5063308;27;102713;-64
2022/01/22 02:02:57;;;;;;;7.97;6.10;;;;;;;3.62;91.49;100189.78;5051190;27;104269;-67
2022/01/22 02:05:31;;;;;;;14.93;8.13;;;;;;;3.60;90.98;100186.34;5046699;27;103301;-66
2022/01/22 02:08:00;;;;;;;11.30;7.83;;;;;;;3.54;91.04;100194.31;5047486;27;102668;-67
2022/01/22 02:10:56;;;;;;;12.73;8.57;;;;;;;3.45;92.35;100203.19;5043544;27;102696;-66
2022/01/22 02:13:47;;;;;;;11.33;7.37;;;;;;;3.51;92.25;100196.97;5047548;27;104229;-66
2022/01/22 02:24:59;;;;;;;8.53;7.13;;;;;;;3.45;92.61;100186.66;5041998;27;104301;-66
2022/01/22 02:27:27;;;;;;;11.97;8.70;;;;;;;3.43;92.57;100177.97;5041819;27;103292;-66
2022/01/22 02:29:55;;;;;;;12.57;8.40;;;;;;;3.42;91.65;100171.06;5040082;27;102757;-66
2022/01/22 02:33:07;;;;;;;11.73;8.27;;;;;;;3.42;92.08;100171.06;5051029;27;103843;-64
2022/01/22 02:35:48;;;;;;;9.60;7.10;;;;;;;3.48;91.82;100165.72;5043296;27;105083;-67
2022/01/22 02:38:22;;;;;;;10.77;8.73;;;;;;;3.39;91.41;100174.59;5040704;27;103343;-66
2022/01/22 02:40:50;;;;;;;12.10;8.00;;;;;;;3.43;91.65;100177.97;5057276;27;102676;-67
2022/01/22 02:43:20;;;;;;;10.83;8.20;;;;;;;3.45;91.46;100171.00;5065876;27;103181;-66
2022/01/22 02:45:49;;;;;;;8.33;6.53;;;;;;;3.55;91.33;100174.25;5049886;27;104019;-64
2022/01/22 02:48:18;;;;;;;10.83;8.83;;;;;;;3.49;92.28;100178.72;5046039;27;106442;-64
2022/01/22 02:50:46;;;;;;;13.83;8.63;;;;;;;3.49;91.21;100186.56;5043837;27;102719;-66
2022/01/22 02:53:14;;;;;;;11.57;9.20;;;;;;;3.50;91.62;100179.59;5044257;27;103909;-66
2022/01/22 02:55:46;;;;;;;13.10;8.93;;;;;;;3.48;91.79;100179.59;5067600;27;104514;-64
2022/01/22 02:58:15;;;;;;;8.27;7.37;;;;;;;3.49;92.14;100177.84;5050135;27;104960;-64
2022/01/22 03:00:47;;;;;;;13.57;9.50;;;;;;;3.39;92.15;100171.13;5041092;27;102811;-64
2022/01/22 03:03:19;;;;;;;12.93;8.93;;;;;;;3.46;91.78;100170.09;5043057;27;102781;-64
2022/01/22 03:05:48;;;;;;;11.47;8.03;;;;;;;3.52;92.11;100159.50;5041268;27;103232;-64
2022/01/22 03:08:15;;;;;;;13.43;10.97;;;;;;;3.39;92.29;100163.28;5062847;27;103241;-66
2022/01/22 03:10:51;;;;;;;10.80;8.70;;;;;;;3.40;92.43;100162.34;5051224;27;102629;-64
2022/01/22 03:16:13;;;;;;;11.57;9.50;;;;;;;3.42;93.01;100163.22;5045881;27;104377;-66
2022/01/22 03:18:56;;;;;;;12.90;9.77;;;;;;;3.44;92.46;100169.25;5051814;27;103165;-66
2022/01/22 03:21:36;;;;;;;11.27;10.03;;;;;;;3.43;92.42;100167.53;5048136;27;102600;-66
2022/01/22 03:29:39;;;;;;;13.03;9.63;;;;;;;3.39;92.85;100171.97;5050657;27;104185;-66
2022/01/22 03:32:11;;;;;;;13.07;10.57;;;;;;;3.26;92.58;100164.38;5045258;27;102743;-64
2022/01/22 03:34:44;;;;;;;12.33;9.60;;;;;;;3.34;93.19;100170.34;5069820;27;103810;-66
2022/01/22 03:37:16;;;;;;;12.07;10.33;;;;;;;3.35;93.28;100164.22;5045315;27;105169;-66
2022/01/22 03:39:44;;;;;;;10.67;9.30;;;;;;;3.43;92.96;100162.31;5050952;27;103206;-66
2022/01/22 03:42:14;;;;;;;11.03;9.20;;;;;;;3.43;92.60;100159.69;5048782;27;103224;-64
2022/01/22 03:44:42;;;;;;;14.17;9.77;;;;;;;3.40;92.62;100154.53;5068776;27;103810;-64
2022/01/22 03:47:10;;;;;;;12.83;10.07;;;;;;;3.19;93.00;100147.13;5039549;27;104199;-64
2022/01/22 03:49:38;;;;;;;14.90;10.23;;;;;;;3.17;93.74;100152.38;5041641;27;105467;-64
2022/01/22 03:52:11;;;;;;;14.23;11.00;;;;;;;3.16;93.66;100148.06;5053343;27;102574;-64
2022/01/22 03:54:39;;;;;;;13.30;10.07;;;;;;;3.25;93.50;100147.00;5055191;27;104554;-64
2022/01/22 03:57:08;;;;;;;12.67;10.77;;;;;;;3.29;93.32;100143.44;5044826;27;105132;-64
2022/01/22 03:59:51;;;;;;;15.20;10.77;;;;;;;3.22;93.58;100131.41;5042606;27;103354;-66
2022/01/22 04:05:08;;;;;;;14.90;10.17;;;;;;;3.24;93.37;100134.84;5053803;27;103458;-64
2022/01/22 04:10:26;;;;;;;12.60;9.23;;;;;;;3.35;93.43;100138.09;5046185;27;102823;-66
2022/01/22 04:12:59;;;;;;;13.03;9.70;;;;;;;3.21;93.23;100142.72;5060600;27;102637;-64
2022/01/22 04:15:32;;;;;;;12.67;9.77;;;;;;;3.21;93.23;100150.56;5064736;27;104110;-64
2022/01/22 04:26:29;;;;;;;14.23;10.50;;;;;;;3.24;93.28;100129.59;5042039;27;104112;-64
2022/01/22 04:28:57;;;;;;;13.20;10.07;;;;;;;3.25;92.99;100131.34;5062094;27;103275;-64
2022/01/22 04:31:27;;;;;;;15.60;10.67;;;;;;;3.22;93.73;100139.25;5063611;27;103209;-64
2022/01/22 04:33:55;;;;;;;10.43;8.47;;;;;;;3.25;93.31;100141.78;5059503;27;102761;-63
2022/01/22 04:36:23;;;;;;;13.70;10.90;;;;;;;3.27;93.24;100142.59;5040836;27;104022;-64
2022/01/22 04:38:53;;;;;;;11.20;10.03;;;;;;;3.33;92.52;100135.53;5070854;27;103201;-64
2022/01/22 04:41:21;;;;;;;12.93;9.27;;;;;;;3.37;92.21;100134.53;5060571;27;103240;-64
2022/01/22 04:43:56;;;;;;;11.53;10.23;;;;;;;3.45;91.98;100134.41;5069475;27;102695;-65
2022/01/22 04:46:38;;;;;;;12.30;10.17;;;;;;;3.37;92.82;100136.28;5046181;27;103075;-63
2022/01/22 04:49:11;;;;;;;13.20;9.57;;;;;;;3.34;92.40;100137.22;5040304;27;103972;-64
2022/01/22 04:57:13;;;;;;;10.40;8.23;;;;;;;3.48;92.40;100150.03;5053392;27;104052;-64
2022/01/22 04:59:41;;;;;;;15.53;10.10;;;;;;;3.57;91.66;100155.03;5043451;27;103889;-65
2022/01/22 05:02:11;;;;;;;12.53;9.93;;;;;;;3.53;91.33;100158.63;5043403;27;104460;-64
2022/01/22 05:04:48;;;;;;;16.37;10.40;;;;;;;3.49;91.21;100168.28;5044554;27;102714;-65
2022/01/22 05:07:34;;;;;;;11.23;9.20;;;;;;;3.55;91.34;100167.28;5064371;27;102823;-64
2022/01/22 05:10:13;;;;;;;14.03;11.03;;;;;;;3.42;92.11;100163.22;5042496;27;103322;-66
2022/01/22 05:12:42;;;;;;;13.70;8.93;;;;;;;3.57;91.44;100160.25;5048351;27;104315;-66
2022/01/22 05:15:12;;;;;;;13.03;10.40;;;;;;;3.51;91.84;100176.06;5066367;27;102657;-66
2022/01/22 05:17:43;;;;;;;13.10;9.27;;;;;;;3.57;91.45;100169.84;5044596;27;102722;-66
2022/01/22 05:20:22;;;;;;;10.40;8.47;;;;;;;3.64;90.99;100176.69;5043017;27;102778;-66
2022/01/22 05:22:57;;;;;;;14.07;10.83;;;;;;;3.44;91.53;100174.50;5048461;27;106000;-66
2022/01/22 05:25:30;;;;;;;9.30;7.47;;;;;;;3.61;91.05;100185.47;5049711;27;102764;-67
2022/01/22 05:28:20;;;;;;;12.30;10.20;;;;;;;3.54;91.18;100185.63;5043150;27;103577;-67
2022/01/22 05:31:22;;;;;;;12.17;10.20;;;;;;;3.48;91.05;100197.91;5051228;27;104026;-64
2022/01/22 05:37:02;;;;;;;13.97;10.97;;;;;;;3.52;90.77;100185.63;5034113;27;102801;-65
2022/01/22 05:39:35;;;;;;;13.00;9.77;;;;;;;3.53;91.60;100200.44;5038492;27;104565;-64
2022/01/22 05:42:09;;;;;;;13.23;10.43;;;;;;;3.53;90.88;100194.34;5043116;27;105082;-64
2022/01/22 05:44:37;;;;;;;14.70;9.83;;;;;;;3.49;91.67;100194.41;5044712;27;104195;-64
2022/01/22 05:47:06;;;;;;;13.30;10.53;;;;;;;3.43;91.36;100193.66;5045879;27;102816;-65
2022/01/22 05:49:40;;;;;;;13.33;10.30;;;;;;;3.44;91.40;100195.38;5044210;27;102688;-64
2022/01/22 05:52:12;;;;;;;15.13;10.83;;;;;;;3.55;91.32;100192.56;5042645;27;104264;-66
2022/01/22 05:55:07;;;;;;;14.47;10.57;;;;;;;3.47;91.01;100195.34;5042894;27;104225;-66
2022/01/22 06:00:31;;;;;;;16.03;10.53;;;;;;;3.51;91.18;100202.19;5041273;27;104092;-66
2022/01/22 06:03:11;;;;;;;13.23;9.10;;;;;;;3.44;91.07;100190.16;5039942;27;103757;-66
2022/01/22 06:05:42;;;;;;;14.37;10.70;;;;;;;3.48;90.74;100197.06;5043396;27;102793;-66
2022/01/22 06:08:15;;;;;;;14.40;10.80;;;;;;;3.45;91.54;100194.50;5042122;27;103231;-65
2022/01/22 06:10:45;;;;;;;12.47;9.70;;;;;;;3.58;91.07;100202.94;5045542;27;103954;-65
2022/01/22 06:13:17;;;;;;;11.50;8.90;;;;;;;3.62;90.51;100200.22;5043801;27;104412;-66
2022/01/22 06:15:45;;;;;;;11.67;8.93;;;;;;;3.67;90.13;100211.47;5042121;27;103283;-66
2022/01/22 06:18:43;;;;;;;12.53;10.10;;;;;;;3.67;89.77;100203.63;5007467;27;102706;-65
2022/01/22 06:21:13;;;;;;;14.93;10.33;;;;;;;3.67;90.00;100208.00;5040803;27;103653;-65
2022/01/22 06:23:45;;;;;;;9.77;8.50;;;;;;;3.60;90.71;100207.25;5048414;27;105953;-65
2022/01/22 06:26:14;;;;;;;11.40;10.10;;;;;;;3.49;90.35;100201.38;5051092;27;103693;-65
2022/01/22 06:28:43;;;;;;;14.33;9.67;;;;;;;3.67;90.12;100208.84;5055589;27;102658;-64
2022/01/22 06:31:14;;;;;;;14.00;10.33;;;;;;;3.63;89.89;100215.03;5043027;27;103621;-65
2022/01/22 06:33:46;;;;;;;10.27;8.13;;;;;;;3.62;90.17;100208.06;5043373;27;104145;-65
2022/01/22 06:36:16;;;;;;;16.33;10.93;;;;;;;3.72;89.72;100211.38;5043084;27;104538;-64
2022/01/22 06:38:44;;;;;;;13.50;9.77;;;;;;;3.59;90.02;100218.63;5045352;27;102801;-66
2022/01/22 06:41:44;;;;;;;13.37;9.87;;;;;;;3.68;90.13;100213.16;5005025;27;102984;-66
2022/01/22 06:44:34;;;;;;;13.90;10.23;;;;;;;3.75;89.68;100209.56;5043094;27;103153;-69
2022/01/22 06:47:20;;;;;;;13.73;10.23;;;;;;;3.75;89.12;100209.56;5063151;27;103124;-67
2022/01/22 06:50:06;;;;;;;10.00;8.50;;;;;;;3.81;89.46;100219.88;5042629;27;102897;-65
2022/01/22 06:52:56;;;;;;;12.70;10.07;;;;;;;3.70;89.58;100221.00;5058849;27;102672;-65
2022/01/22 06:55:51;;;;;;;11.60;8.50;;;;;;;3.69;90.26;100225.38;5060712;27;104231;-68
2022/01/22 06:58:20;;;;;;;12.20;9.47;;;;;;;3.65;90.47;100221.06;5044040;27;106001;-68
2022/01/22 07:01:03;;;;;;;14.30;10.73;;;;;;;3.57;89.94;100217.75;5042159;27;102792;-68
2022/01/22 07:03:40;;;;;;;12.70;9.70;;;;;;;3.60;90.61;100225.53;5045300;27;102840;-65
2022/01/22 07:06:31;;;;;;;13.07;10.00;;;;;;;3.51;90.73;100226.59;5042051;27;105126;-65
2022/01/22 07:09:01;;;;;;;14.00;10.03;;;;;;;3.58;91.06;100229.09;5044483;27;104255;-65
2022/01/22 07:11:31;;;;;;;10.37;9.13;;;;;;;3.66;90.30;100222.81;5046961;27;102735;-65
2022/01/22 07:14:01;;;;;;;13.83;9.53;;;;;;;3.61;90.35;100229.88;5042407;27;102678;-68
2022/01/22 07:16:29;;;;;;;14.53;10.07;;;;;;;3.64;89.75;100223.72;5043037;27;104135;-67
2022/01/22 07:19:18;;;;;;;10.83;8.97;;;;;;;3.64;90.15;100221.13;5045680;27;104093;-67
2022/01/22 07:21:58;;;;;;;9.87;8.90;;;;;;;3.65;90.07;100226.31;5043446;27;102795;-67
2022/01/22 07:24:32;;;;;;;11.33;9.47;;;;;;;3.68;89.11;100228.03;5069575;27;104292;-67
2022/01/22 07:27:02;;;;;;;13.23;9.33;;;;;;;3.71;89.02;100226.19;5045953;27;103249;-67
2022/01/22 07:29:32;;;;;;;14.03;8.40;;;;;;;3.71;89.47;100227.94;5037322;27;105710;-67
2022/01/22 07:32:02;;;;;;;12.50;9.50;;;;;;;3.76;89.32;100226.94;5043449;27;102740;-66
2022/01/22 07:34:30;;;;;;;12.20;9.10;;;;;;;3.65;90.00;100226.31;5044468;27;102694;-67
2022/01/22 07:37:09;;;;;;;14.07;10.10;;;;;;;3.70;90.69;100232.31;5043332;27;103242;-67
2022/01/22 07:39:38;;;;;;;13.30;10.13;;;;;;;3.55;91.36;100224.78;5054576;27;102806;-67
2022/01/22 07:42:30;;;;;;;11.73;10.43;;;;;;;3.48;91.42;100223.19;5053898;27;102872;-67
2022/01/22 07:45:20;;;;;;;15.90;10.43;;;;;;;3.41;91.54;100226.81;5060160;27;102734;-67
2022/01/22 07:47:55;;;;;;;12.33;8.93;;;;;;;3.49;91.81;100230.13;5046242;27;104273;-67
2022/01/22 07:50:43;;;;;;;12.50;9.97;;;;;;;3.60;91.63;100241.22;5064732;27;103436;-67
2022/01/22 07:53:11;;;;;;;12.00;9.60;;;;;;;3.62;91.81;100244.66;5040634;27;104611;-67
2022/01/22 07:55:41;;;;;;;13.20;10.57;;;;;;;3.67;91.49;100249.81;5064753;27;102890;-67
2022/01/22 07:58:11;;;;;;;11.43;10.17;;;;;;;3.74;91.34;100241.81;5045026;27;103961;-66
2022/01/22 08:00:40;;;;;;;9.83;8.77;;;;;;;3.64;92.54;100242.03;5041174;27;104093;-67
2022/01/22 08:03:08;;;;;;;15.47;9.63;;;;;;;3.67;92.83;100242.84;5050937;27;102582;-67
2022/01/22 08:06:00;;;;;;;11.17;9.07;;;;;;;3.67;92.00;100240.22;5023989;27;102873;-65
2022/01/22 08:09:05;;;;;;;12.03;9.17;;;;;;;3.71;91.93;100241.88;5063248;27;103302;-67
2022/01/22 08:12:05;;;;;;;14.40;10.03;;;;;;;3.66;92.58;100238.50;5032146;27;102709;-63
2022/01/22 08:14:34;;;;;;;13.90;9.70;;;;;;;3.65;93.60;100239.38;5036082;27;102876;-62
2022/01/22 08:17:03;;;;;;;12.70;9.33;;;;;;;3.78;92.80;100237.38;5047400;27;104212;-66
2022/01/22 08:19:35;;;;;;;12.43;9.87;;;;;;;3.83;91.87;100241.63;5053790;27;103386;-66
2022/01/22 08:22:09;;;;;;;13.13;9.53;;;;;;;3.76;90.92;100244.41;5049737;27;103295;-66
2022/01/22 08:25:07;;;;;;;12.50;9.67;;;;;;;3.78;91.16;100248.72;4992155;27;102997;-66
2022/01/22 08:27:42;;;;;;;12.20;9.80;;;;;;;3.72;91.60;100248.84;5052403;27;102671;-65
2022/01/22 08:30:14;;;;;;;10.47;9.17;;;;;;;3.70;91.86;100252.38;5067354;27;103894;-65
2022/01/22 08:33:19;;;;;;;11.93;9.30;;;;;;;3.62;91.82;100252.50;5044845;27;103256;-65
2022/01/22 08:35:52;;;;;;;12.17;8.43;;;;;;;3.83;91.04;100259.94;5040778;27;102637;-61
2022/01/22 08:38:23;;;;;;;8.83;7.93;;;;;;;3.91;90.15;100265.84;5048924;27;102700;-64
2022/01/22 08:40:53;;;;;;;10.03;8.07;;;;;;;3.94;90.17;100270.16;5043592;27;103277;-65
2022/01/22 08:43:25;;;;;;;11.47;8.80;;;;;;;3.92;89.94;100271.97;5045111;27;103300;-65
2022/01/22 08:45:54;;;;;;;12.27;8.17;;;;;;;3.91;89.49;100278.94;5045108;27;102701;-65
2022/01/22 08:48:23;;;;;;;9.43;7.90;;;;;;;3.94;90.26;100275.38;5045400;27;102712;-65
2022/01/22 08:50:56;;;;;;;9.50;8.50;;;;;;;3.93;90.54;100278.91;5042938;27;105884;-64
2022/01/22 08:53:44;;;;;;;8.83;7.90;;;;;;;3.97;89.98;100281.44;5046016;27;107330;-65
2022/01/22 08:56:13;;;;;;;8.93;7.17;;;;;;;4.07;90.16;100285.56;5039183;27;102697;-65
2022/01/22 08:58:45;;;;;;;8.87;7.97;;;;;;;4.00;90.05;100288.34;5047761;27;104108;-64
2022/01/22 09:01:34;;;;;;;13.57;7.80;;;;;;;3.98;89.58;100283.16;5060619;27;104071;-65
2022/01/22 09:04:10;;;;;;;9.67;7.10;;;;;;;4.07;89.38;100292.53;5046743;27;103170;-64
2022/01/22 09:06:56;;;;;;;10.17;7.77;;;;;;;4.07;88.72;100290.78;5064010;27;103942;-64
2022/01/22 09:09:35;;;;;;;10.90;8.73;;;;;;;4.13;89.25;100288.97;5047250;27;102602;-65
2022/01/22 09:12:22;;;;;;;9.77;7.37;;;;;;;4.12;89.36;100295.94;5063267;27;103338;-64
2022/01/22 09:14:56;;;;;;;9.03;7.20;;;;;;;4.02;90.14;100283.94;5047902;27;103883;-65
2022/01/22 09:17:24;;;;;;;12.10;8.80;;;;;;;4.07;89.37;100277.72;5055927;27;102750;-65
2022/01/22 09:19:57;;;;;;;9.47;8.10;;;;;;;3.94;89.72;100285.84;5047720;27;104419;-68
2022/01/22 09:22:26;;;;;;;9.97;7.57;;;;;;;4.03;88.79;100296.13;5047031;27;103134;-67
2022/01/22 09:24:55;;;;;;;9.30;7.60;;;;;;;4.17;89.16;100293.22;5046758;27;103241;-66
2022/01/22 09:27:24;;;;;;;6.67;5.97;;;;;;;4.30;88.67;100307.75;5049311;27;102744;-66
2022/01/22 09:29:53;;;;;;;12.83;7.60;;;;;;;4.25;89.06;100307.00;5049718;27;102847;-66
2022/01/22 09:32:23;;;;;;;12.33;7.87;;;;;;;4.18;89.32;100300.19;5044427;27;102921;-66
2022/01/22 09:35:20;;;;;;;11.47;7.50;;;;;;;4.19;89.29;100297.53;5043065;27;103241;-66
2022/01/22 09:37:58;;;;;;;11.43;8.17;;;;;;;4.26;88.52;100296.50;5046608;27;102652;-66
2022/01/22 09:40:47;;;;;;;12.80;7.93;;;;;;;4.31;88.40;100304.25;5059697;27;102796;-66
2022/01/22 09:43:16;;;;;;;9.73;7.80;;;;;;;4.23;89.30;100308.78;5050137;27;104204;-66
2022/01/22 09:46:05;;;;;;;11.80;7.97;;;;;;;4.20;88.46;100311.47;5063927;27;103172;-66
2022/01/22 09:48:50;;;;;;;10.67;7.80;;;;;;;4.10;89.52;100321.25;5040917;27;102714;-65
2022/01/22 09:51:40;;;;;;;10.37;7.40;;;;;;;4.22;89.69;100320.13;5046230;27;102690;-65
2022/01/22 09:54:25;;;;;;;10.97;7.47;;;;;;;4.13;89.02;100317.75;5043495;27;105063;-66
2022/01/22 09:57:14;;;;;;;11.43;6.70;;;;;;;4.33;89.74;100326.00;5049767;27;104345;-67
2022/01/22 10:00:00;;;;;;;10.57;6.77;;;;;;;4.47;88.82;100326.56;5059855;27;102681;-67
2022/01/22 10:02:42;;;;;;;9.93;8.10;;;;;;;4.24;89.89;100315.75;5067790;27;104668;-66
2022/01/22 10:05:30;;;;;;;12.50;8.33;;;;;;;4.23;90.12;100329.72;5060547;27;103044;-67
2022/01/22 10:08:24;;;;;;;9.33;8.07;;;;;;;4.16;89.97;100336.81;5060928;27;103201;-66
2022/01/22 10:11:18;;;;;;;9.20;7.03;;;;;;;4.32;90.05;100334.78;5065188;27;102723;-66
2022/01/22 10:14:21;;;;;;;12.67;8.57;;;;;;;4.39;89.83;100338.97;5037824;27;103041;-66
2022/01/22 10:16:49;;;;;;;10.93;8.23;;;;;;;4.31;90.39;100335.66;5064950;27;103244;-66
2022/01/22 10:19:19;;;;;;;10.60;8.13;;;;;;;4.27;91.25;100336.59;5061304;27;103238;-66
2022/01/22 10:21:53;;;;;;;8.70;7.27;;;;;;;4.22;91.75;100334.09;5057681;27;102577;-66
2022/01/22 10:24:38;;;;;;;10.37;7.77;;;;;;;4.17;92.01;100322.88;5061099;27;103017;-66
2022/01/22 10:27:24;;;;;;;8.73;7.07;;;;;;;4.32;92.28;100325.16;5057780;27;103741;-66
2022/01/22 10:29:55;;;;;;;11.07;7.17;;;;;;;4.42;91.22;100336.28;5061596;27;103898;-66
2022/01/22 10:32:35;;;;;;;11.37;8.53;;;;;;;4.38;91.07;100318.94;5058358;27;102587;-66
2022/01/22 10:35:26;;;;;;;9.17;7.17;;;;;;;4.51;91.82;100320.38;5057615;27;102792;-65
2022/01/22 10:38:21;;;;;;;9.03;6.07;;;;;;;4.50;91.75;100318.66;5062772;27;103640;-67
2022/01/22 10:40:56;;;;;;;9.13;8.20;;;;;;;4.38;91.93;100311.09;5058954;27;103231;-66
2022/01/22 10:43:30;;;;;;;10.23;7.97;;;;;;;4.55;92.08;100301.06;5041325;27;102784;-65
2022/01/22 10:46:20;;;;;;;8.53;6.27;;;;;;;4.73;92.25;100305.91;5065214;27;104143;-66
2022/01/22 10:48:56;;;;;;;11.97;8.13;;;;;;;4.63;91.64;100304.41;5060381;27;104231;-66
2022/01/22 10:51:26;;;;;;;10.73;8.20;;;;;;;4.70;91.62;100300.72;5056870;27;103459;-66
2022/01/22 10:53:59;;;;;;;12.93;8.53;;;;;;;4.81;91.90;100306.56;5059032;27;102613;-66
2022/01/22 10:56:29;;;;;;;12.07;8.77;;;;;;;4.86;91.09;100295.97;5035718;27;104009;-67
2022/01/22 10:59:02;;;;;;;12.60;8.90;;;;;;;4.79;91.89;100297.03;5058259;27;103806;-66
2022/01/22 11:01:32;;;;;;;10.93;8.33;;;;;;;4.86;91.13;100286.38;5040820;27;103185;-67
2022/01/22 11:04:07;;;;;;;9.90;8.00;;;;;;;4.79;91.98;100279.56;5055939;27;102663;-66
2022/01/22 11:06:38;;;;;;;11.87;7.13;;;;;;;4.96;91.99;100287.88;5037203;27;102796;-67
2022/01/22 11:09:08;;;;;;;13.23;8.47;;;;;;;4.99;91.96;100274.72;5049265;27;102716;-66
2022/01/22 11:11:39;;;;;;;8.63;7.33;;;;;;;4.84;91.90;100288.16;5063849;27;103293;-67
2022/01/22 11:14:09;;;;;;;8.90;6.87;;;;;;;4.92;90.80;100286.22;5059517;27;102677;-67
2022/01/22 11:16:39;;;;;;;9.00;6.47;;;;;;;5.00;90.73;100286.88;5069983;27;102660;-66
2022/01/22 11:19:19;;;;;;;11.47;7.37;;;;;;;4.87;91.04;100287.25;5071248;27;104128;-66
2022/01/22 11:21:49;;;;;;;9.23;7.27;;;;;;;4.88;91.76;100297.69;5070730;27;103356;-66
2022/01/22 11:24:21;;;;;;;11.93;7.30;;;;;;;4.86;89.99;100296.84;5040458;27;102735;-66
2022/01/22 11:26:52;;;;;;;9.13;6.23;;;;;;;4.94;90.07;100289.66;5048421;27;102830;-66
2022/01/22 11:29:24;;;;;;;11.67;7.83;;;;;;;4.89;90.03;100295.91;5029148;27;103610;-66
2022/01/22 11:31:53;;;;;;;8.37;7.00;;;;;;;4.91;90.19;100292.34;5053276;27;103119;-66
2022/01/22 11:34:26;;;;;;;9.27;6.43;;;;;;;4.96;90.17;100293.13;5060578;27;102693;-66
2022/01/22 11:37:00;;;;;;;10.50;6.70;;;;;;;4.92;89.05;100291.47;5066197;27;102647;-65
2022/01/22 11:39:29;;;;;;;7.00;5.23;;;;;;;5.05;89.56;100294.66;5051437;27;104185;-66
2022/01/22 11:42:01;;;;;;;9.00;6.23;;;;;;;5.04;89.21;100301.66;5049446;27;103275;-61
2022/01/22 11:44:36;;;;;;;8.57;6.43;;;;;;;5.09;89.01;100298.91;5062946;27;103329;-66
2022/01/22 11:47:15;;;;;;;6.77;4.80;;;;;;;5.12;88.98;100286.59;5063648;27;103513;-66
2022/01/22 11:50:08;;;;;;;9.00;6.43;;;;;;;4.96;89.36;100287.03;5079208;27;103839;-66
2022/01/22 11:52:38;;;;;;;8.47;6.47;;;;;;;4.92;88.31;100291.47;5046476;27;103184;-66
2022/01/22 11:55:11;;;;;;;7.27;6.20;;;;;;;5.06;88.21;100294.59;5067789;27;102688;-69
2022/01/22 11:57:40;;;;;;;6.50;5.53;;;;;;;4.90;89.01;100298.50;5068633;27;103481;-69
2022/01/22 12:00:30;;;;;;;10.00;6.13;;;;;;;4.98;88.56;100286.09;5051662;27;103078;-69
2022/01/22 12:03:19;;;;;;;8.23;6.53;;;;;;;4.85;87.75;100283.81;5049539;27;104731;-68
2022/01/22 12:06:09;;;;;;;13.43;6.77;;;;;;;5.00;88.19;100270.31;5076276;27;102680;-68
2022/01/22 12:09:11;;;;;;;9.67;6.87;;;;;;;5.04;87.88;100279.81;5062916;27;102751;-69
2022/01/22 12:14:54;;;;;;;9.43;6.67;;;;;;;5.16;87.99;100275.16;5057377;27;103359;-65
2022/01/22 12:17:59;;;;;;;8.80;6.40;;;;;;;5.14;88.24;100271.69;5064544;27;102682;-64
2022/01/22 12:23:52;;;;;;;9.37;7.13;;;;;;;5.24;88.28;100274.94;5009296;27;104245;-64
2022/01/22 12:26:51;;;;;;;9.50;6.60;;;;;;;5.36;88.13;100279.84;5046050;27;103361;-64
2022/01/22 12:29:43;;;;;;;13.63;8.00;;;;;;;5.30;87.53;100287.03;5073015;27;103697;-64
2022/01/22 12:32:18;;;;;;;8.43;6.23;;;;;;;5.32;88.47;100279.97;5048664;27;102736;-64
2022/01/22 12:35:08;;;;;;;8.07;7.20;;;;;;;5.18;87.84;100283.81;5074928;27;104045;-64
2022/01/22 12:37:41;;;;;;;8.10;6.07;;;;;;;5.29;87.97;100286.16;5054754;27;104266;-64
2022/01/22 12:40:11;;;;;;;10.40;6.73;;;;;;;5.20;87.75;100284.63;5043034;27;103093;-67
2022/01/22 12:42:56;;;;;;;8.17;7.17;;;;;;;4.94;87.61;100284.41;5051025;27;104129;-66
2022/01/22 12:45:25;;;;;;;7.07;6.30;;;;;;;5.15;88.61;100288.28;5064648;27;104077;-68
2022/01/22 12:47:55;;;;;;;7.60;6.03;;;;;;;5.14;88.08;100287.41;5062951;27;103217;-67
2022/01/22 12:50:26;;;;;;;10.87;6.40;;;;;;;5.05;88.58;100292.88;5054270;27;102557;-71
2022/01/22 12:52:55;;;;;;;10.33;7.23;;;;;;;5.10;88.09;100291.03;5060673;27;102696;-68
2022/01/22 12:55:48;;;;;;;7.53;6.60;;;;;;;5.19;88.25;100293.38;5058736;27;104171;-68
2022/01/22 12:58:22;;;;;;;7.27;6.07;;;;;;;5.16;88.15;100280.41;5060716;27;103207;-67
2022/01/22 13:00:53;;;;;;;9.03;7.17;;;;;;;5.16;87.54;100284.75;5060795;27;102714;-68
2022/01/22 13:03:33;;;;;;;8.63;7.23;;;;;;;5.25;87.77;100285.38;5060382;27;103799;-67